Time;durP1;ratioP1;P1;durP2;ratioP2;P2;SDS_P1;SDS_P2;PMS_P1;PMS_P2;Temp;Humidity;BMP_temperature;BMP_pressure;BME280_temperature;BME280_humidity;BME280_pressure;Samples;Min_cycle;Max_cycle;Signal;HPM_P1;HPM_P2
2021/10/06 00:01:36;;;;;;;3.87;0.60;;;11.50;99.90;;;;;;5044889;28;20189;-83
2021/10/06 00:04:02;;;;;;;3.03;1.10;;;11.40;99.90;;;;;;5027893;28;20274;-82
2021/10/06 00:06:27;;;;;;;1.93;0.70;;;11.40;99.90;;;;;;5044352;28;20627;-83
2021/10/06 00:08:53;;;;;;;3.00;0.63;;;11.40;99.90;;;;;;5044405;28;20227;-83
2021/10/06 00:11:19;;;;;;;2.77;0.60;;;11.40;99.90;;;;;;5045364;28;20188;-83
2021/10/06 00:13:45;;;;;;;4.43;0.70;;;11.50;99.90;;;;;;5045094;28;20182;-83
2021/10/06 00:16:12;;;;;;;1.87;0.47;;;11.40;99.90;;;;;;5035243;28;20665;-83
2021/10/06 00:18:39;;;;;;;2.27;0.50;;;11.40;99.90;;;;;;5027270;28;20220;-83
2021/10/06 00:21:05;;;;;;;1.27;0.43;;;11.40;99.90;;;;;;5044221;28;20604;-82
2021/10/06 00:23:32;;;;;;;1.23;0.47;;;11.40;99.90;;;;;;5043844;28;20178;-83
2021/10/06 00:25:59;;;;;;;2.87;0.90;;;11.30;99.90;;;;;;5026435;28;20203;-83
2021/10/06 00:28:24;;;;;;;2.20;0.50;;;11.40;99.90;;;;;;5025749;28;20230;-83
2021/10/06 00:30:50;;;;;;;2.17;0.50;;;11.40;99.90;;;;;;5044170;28;20209;-83
2021/10/06 00:33:16;;;;;;;1.43;0.40;;;11.40;99.90;;;;;;5044110;28;20223;-83
2021/10/06 00:35:41;;;;;;;2.93;0.53;;;11.40;99.90;;;;;;5044116;28;20178;-83
2021/10/06 00:38:07;;;;;;;4.60;0.57;;;11.40;99.90;;;;;;5043441;28;20204;-83
2021/10/06 00:40:33;;;;;;;2.23;0.60;;;11.40;99.90;;;;;;5043783;28;20193;-83
2021/10/06 00:42:58;;;;;;;2.17;0.80;;;11.50;99.90;;;;;;5025966;28;20182;-83
2021/10/06 00:45:24;;;;;;;1.90;0.63;;;11.60;99.90;;;;;;5045872;28;20684;-83
2021/10/06 00:47:50;;;;;;;3.20;0.93;;;11.60;99.90;;;;;;5050026;28;20205;-83
2021/10/06 00:50:15;;;;;;;2.67;0.70;;;11.60;99.90;;;;;;5031971;28;20230;-83
2021/10/06 00:52:41;;;;;;;2.40;0.80;;;11.50;99.90;;;;;;5029650;28;20175;-83
2021/10/06 00:55:07;;;;;;;1.97;0.63;;;11.40;99.90;;;;;;5027820;28;20236;-83
2021/10/06 00:57:33;;;;;;;1.97;0.70;;;11.30;99.90;;;;;;5027948;28;20205;-82
2021/10/06 00:59:59;;;;;;;1.90;0.57;;;11.30;99.90;;;;;;5045570;28;20639;-83
2021/10/06 01:02:25;;;;;;;1.77;0.47;;;11.20;99.90;;;;;;5027466;28;20190;-83
2021/10/06 01:04:51;;;;;;;1.47;0.50;;;11.30;99.90;;;;;;5045683;28;20204;-82
2021/10/06 01:07:18;;;;;;;2.40;0.50;;;11.30;99.90;;;;;;5027966;28;20176;-82
2021/10/06 01:09:44;;;;;;;1.83;0.50;;;11.20;99.90;;;;;;5027038;28;20269;-82
2021/10/06 01:12:10;;;;;;;0.80;0.30;;;11.20;99.90;;;;;;5045092;28;20174;-82
2021/10/06 01:14:36;;;;;;;1.07;0.40;;;11.20;99.90;;;;;;5026614;28;20703;-82
2021/10/06 01:17:02;;;;;;;0.83;0.30;;;11.20;99.90;;;;;;5045127;28;20186;-82
2021/10/06 01:19:29;;;;;;;1.27;0.30;;;11.30;99.90;;;;;;5044253;28;20699;-83
2021/10/06 01:21:56;;;;;;;0.67;0.20;;;11.30;99.90;;;;;;5044746;28;20277;-83
2021/10/06 01:24:23;;;;;;;1.40;0.40;;;11.20;99.90;;;;;;5026766;28;20210;-83
2021/10/06 01:26:49;;;;;;;2.60;0.40;;;11.30;99.90;;;;;;5028812;28;20276;-83
2021/10/06 01:29:14;;;;;;;1.57;0.37;;;11.30;99.90;;;;;;5060470;23;20250;-78
2021/10/06 01:31:46;;;;;;;1.13;0.30;;;11.30;99.90;;;;;;5057085;28;20647;-78
2021/10/06 01:34:12;;;;;;;1.47;0.40;;;11.40;99.90;;;;;;5056297;28;20257;-78
2021/10/06 01:36:38;;;;;;;1.10;0.40;;;11.30;99.90;;;;;;5072551;28;20210;-78
2021/10/06 01:39:08;;;;;;;1.67;0.40;;;11.20;99.90;;;;;;5062101;28;20220;-78
2021/10/06 01:41:37;;;;;;;1.03;0.73;;;11.30;99.90;;;;;;5031752;28;20208;-78
2021/10/06 01:44:03;;;;;;;2.10;0.47;;;11.30;99.90;;;;;;5034183;28;20176;-78
2021/10/06 01:46:29;;;;;;;1.83;0.60;;;11.20;99.90;;;;;;5033461;28;20196;-78
2021/10/06 01:48:55;;;;;;;1.30;0.40;;;11.20;99.90;;;;;;5034934;28;20214;-78
2021/10/06 01:51:21;;;;;;;1.17;0.43;;;11.20;99.90;;;;;;5036803;28;20548;-78
2021/10/06 01:53:46;;;;;;;0.40;0.30;;;11.10;99.90;;;;;;5036624;28;20225;-78
2021/10/06 01:56:12;;;;;;;1.93;0.60;;;11.10;99.90;;;;;;5035926;28;20544;-78
2021/10/06 01:58:38;;;;;;;0.93;0.33;;;11.00;99.90;;;;;;5036646;28;20202;-78
2021/10/06 02:01:04;;;;;;;0.70;0.30;;;11.00;99.90;;;;;;5036844;28;20181;-78
2021/10/06 02:03:29;;;;;;;1.03;0.40;;;11.00;99.90;;;;;;5035924;28;20605;-78
2021/10/06 02:05:56;;;;;;;1.37;0.43;;;11.00;99.90;;;;;;5036664;28;20199;-78
2021/10/06 02:08:21;;;;;;;1.33;0.40;;;11.00;99.90;;;;;;5034708;28;20232;-79
2021/10/06 02:10:48;;;;;;;2.00;0.57;;;10.90;99.90;;;;;;5030973;28;20184;-78
2021/10/06 02:13:14;;;;;;;1.20;0.53;;;10.80;99.90;;;;;;5036683;28;20647;-78
2021/10/06 02:15:40;;;;;;;2.30;0.70;;;10.90;99.90;;;;;;5036084;28;20178;-78
2021/10/06 02:18:06;;;;;;;1.63;0.60;;;10.70;99.90;;;;;;5036167;28;20168;-78
2021/10/06 02:20:32;;;;;;;1.50;0.47;;;10.70;99.90;;;;;;5035148;28;20665;-78
2021/10/06 02:22:58;;;;;;;2.50;0.40;;;10.70;99.90;;;;;;5036885;28;20254;-78
2021/10/06 02:25:24;;;;;;;1.30;0.70;;;10.70;99.90;;;;;;5036229;28;20677;-78
2021/10/06 02:27:50;;;;;;;3.40;0.50;;;10.70;99.90;;;;;;5036515;28;20174;-78
2021/10/06 02:30:16;;;;;;;2.77;0.83;;;10.60;99.90;;;;;;5034581;28;20221;-78
2021/10/06 02:32:43;;;;;;;1.47;0.50;;;10.70;99.90;;;;;;5036128;28;20190;-78
2021/10/06 02:35:09;;;;;;;1.07;0.50;;;10.60;99.90;;;;;;5035460;28;20191;-78
2021/10/06 02:37:40;;;;;;;1.17;0.60;;;10.60;99.90;;;;;;5036705;28;20177;-78
2021/10/06 02:40:10;;;;;;;2.47;0.60;;;10.70;99.90;;;;;;5037007;28;20193;-77
2021/10/06 02:42:37;;;;;;;1.53;0.50;;;10.70;99.90;;;;;;5034842;28;20173;-78
2021/10/06 02:45:04;;;;;;;2.33;0.60;;;10.70;99.90;;;;;;5034378;28;20200;-78
2021/10/06 02:47:30;;;;;;;1.20;0.50;;;10.70;99.90;;;;;;5035803;28;20176;-78
2021/10/06 02:49:55;;;;;;;2.13;0.60;;;10.60;99.90;;;;;;5036106;28;20192;-78
2021/10/06 02:52:21;;;;;;;2.60;1.17;;;10.60;99.90;;;;;;5035234;28;20642;-78
2021/10/06 02:54:46;;;;;;;4.30;1.53;;;10.70;99.90;;;;;;5039489;28;20176;-80
2021/10/06 02:57:12;;;;;;;2.23;1.10;;;10.70;99.90;;;;;;5034912;28;20185;-78
2021/10/06 02:59:38;;;;;;;4.07;1.37;;;10.70;99.90;;;;;;5035549;28;20252;-78
2021/10/06 03:02:03;;;;;;;1.97;0.70;;;10.70;99.90;;;;;;5035643;28;20176;-78
2021/10/06 03:04:29;;;;;;;3.37;0.63;;;10.70;99.90;;;;;;5031841;28;20203;-79
2021/10/06 03:06:55;;;;;;;2.33;0.90;;;10.60;99.90;;;;;;5034831;28;20172;-78
2021/10/06 03:09:20;;;;;;;3.27;0.43;;;10.60;99.90;;;;;;5032710;28;20230;-78
2021/10/06 03:11:48;;;;;;;2.27;0.60;;;10.60;99.90;;;;;;5032890;28;20183;-79
2021/10/06 03:14:13;;;;;;;2.03;0.40;;;10.60;99.90;;;;;;5034403;28;20227;-79
2021/10/06 03:16:39;;;;;;;0.73;0.30;;;10.50;99.90;;;;;;5037291;28;20177;-79
2021/10/06 03:19:05;;;;;;;1.67;0.37;;;10.60;99.90;;;;;;5037039;28;20279;-78
2021/10/06 03:21:31;;;;;;;0.50;0.30;;;10.50;99.90;;;;;;5036518;28;20242;-78
2021/10/06 03:23:57;;;;;;;3.17;0.70;;;10.50;99.90;;;;;;5038429;28;20203;-79
2021/10/06 03:26:22;;;;;;;0.60;0.30;;;10.50;99.90;;;;;;5035913;28;20191;-79
2021/10/06 03:28:48;;;;;;;1.40;0.67;;;10.50;99.90;;;;;;5037421;28;20216;-78
2021/10/06 03:31:14;;;;;;;3.10;0.70;;;10.50;99.90;;;;;;5038701;28;20204;-78
2021/10/06 03:33:40;;;;;;;2.97;0.60;;;10.50;99.90;;;;;;5037829;28;20175;-79
2021/10/06 03:36:06;;;;;;;1.10;0.40;;;10.50;99.90;;;;;;5033763;28;20672;-78
2021/10/06 03:38:31;;;;;;;1.90;0.50;;;10.40;99.90;;;;;;5037907;28;20302;-78
2021/10/06 03:40:57;;;;;;;1.87;0.80;;;10.40;99.90;;;;;;5038821;28;20697;-78
2021/10/06 03:43:23;;;;;;;3.93;0.60;;;10.40;99.90;;;;;;5038789;28;20742;-78
2021/10/06 03:45:49;;;;;;;1.43;0.60;;;10.40;99.90;;;;;;5038699;28;20203;-78
2021/10/06 03:48:15;;;;;;;1.90;0.40;;;10.30;99.90;;;;;;5038100;28;20185;-78
2021/10/06 03:50:40;;;;;;;1.37;0.50;;;10.30;99.90;;;;;;5036938;28;20186;-78
2021/10/06 03:53:06;;;;;;;3.00;0.60;;;10.30;99.90;;;;;;5037117;28;20175;-78
2021/10/06 03:55:32;;;;;;;2.67;0.80;;;10.30;99.90;;;;;;5039206;28;20268;-78
2021/10/06 03:57:58;;;;;;;2.27;0.50;;;10.40;99.90;;;;;;5038557;28;20175;-78
2021/10/06 04:00:25;;;;;;;2.97;0.70;;;10.30;99.90;;;;;;5035831;28;20682;-78
2021/10/06 04:02:51;;;;;;;1.43;0.70;;;10.40;99.90;;;;;;5035928;28;20549;-79
2021/10/06 04:05:17;;;;;;;2.10;0.80;;;10.40;99.90;;;;;;5037742;28;20198;-78
2021/10/06 04:07:42;;;;;;;1.10;0.70;;;10.40;99.90;;;;;;5031005;28;20171;-78
2021/10/06 04:10:08;;;;;;;5.00;0.70;;;10.40;99.90;;;;;;5037923;28;20201;-78
2021/10/06 04:12:34;;;;;;;2.00;0.83;;;10.50;99.90;;;;;;5038198;28;20180;-78
2021/10/06 04:15:00;;;;;;;3.50;0.80;;;10.50;99.90;;;;;;5037307;28;20282;-78
2021/10/06 04:17:26;;;;;;;3.87;0.80;;;10.50;99.90;;;;;;5036955;28;20536;-78
2021/10/06 04:19:51;;;;;;;3.27;1.10;;;10.60;99.90;;;;;;5038008;28;20235;-78
2021/10/06 04:22:17;;;;;;;2.83;1.00;;;10.60;99.90;;;;;;5035995;28;20187;-78
2021/10/06 04:24:43;;;;;;;3.37;0.80;;;10.60;99.90;;;;;;5037590;28;20298;-78
2021/10/06 04:27:09;;;;;;;2.27;0.83;;;10.60;99.90;;;;;;5038284;28;20761;-78
2021/10/06 04:29:35;;;;;;;2.20;0.80;;;10.60;99.90;;;;;;5036948;28;20216;-78
2021/10/06 04:32:01;;;;;;;1.00;0.50;;;10.60;99.90;;;;;;5038778;28;20240;-78
2021/10/06 04:34:26;;;;;;;1.23;0.80;;;10.50;99.90;;;;;;5037621;28;20278;-78
2021/10/06 04:36:52;;;;;;;4.00;0.90;;;10.50;99.90;;;;;;5037674;28;20233;-77
2021/10/06 04:39:18;;;;;;;2.57;0.97;;;10.50;99.90;;;;;;5035930;28;20285;-78
2021/10/06 04:41:44;;;;;;;1.60;0.80;;;10.40;99.90;;;;;;5038651;28;20257;-78
2021/10/06 04:44:09;;;;;;;2.83;1.03;;;10.40;99.90;;;;;;5031898;28;20188;-78
2021/10/06 04:46:35;;;;;;;5.07;1.17;;;10.40;99.90;;;;;;5037752;28;20183;-78
2021/10/06 04:49:02;;;;;;;3.80;1.10;;;10.50;99.90;;;;;;5036240;28;20202;-78
2021/10/06 04:51:28;;;;;;;1.90;0.93;;;10.40;99.90;;;;;;5038581;28;20183;-79
2021/10/06 04:53:54;;;;;;;2.50;0.90;;;10.40;99.90;;;;;;5044589;28;20192;-80
2021/10/06 04:56:19;;;;;;;2.53;0.97;;;10.40;99.90;;;;;;5040321;28;20563;-78
2021/10/06 04:58:45;;;;;;;1.77;0.70;;;10.40;99.90;;;;;;5038880;28;20300;-80
2021/10/06 05:01:11;;;;;;;2.20;0.80;;;10.30;99.90;;;;;;5033495;28;20181;-78
2021/10/06 05:03:37;;;;;;;2.77;0.80;;;10.30;99.90;;;;;;5035141;28;20258;-81
2021/10/06 05:06:02;;;;;;;3.20;0.70;;;10.30;99.90;;;;;;5042419;28;20665;-80
2021/10/06 05:08:33;;;;;;;2.50;0.63;;;10.30;99.90;;;;;;5043935;28;20204;-79
2021/10/06 05:10:59;;;;;;;3.10;0.90;;;10.30;99.90;;;;;;5041668;28;20561;-80
2021/10/06 05:13:24;;;;;;;4.40;0.90;;;10.30;99.90;;;;;;5041963;28;20192;-80
2021/10/06 05:15:50;;;;;;;2.10;1.00;;;10.30;99.90;;;;;;5039708;28;20219;-80
2021/10/06 05:18:16;;;;;;;3.77;0.87;;;10.30;99.90;;;;;;5038179;28;20607;-80
2021/10/06 05:20:41;;;;;;;2.30;0.90;;;10.30;99.90;;;;;;5038737;28;20200;-79
2021/10/06 05:23:07;;;;;;;2.30;1.00;;;10.20;99.90;;;;;;5037459;28;20179;-79
2021/10/06 05:25:35;;;;;;;3.03;1.20;;;10.20;99.90;;;;;;5039176;28;20207;-79
2021/10/06 05:28:01;;;;;;;5.33;2.13;;;10.30;99.90;;;;;;5035852;28;20168;-79
2021/10/06 05:30:26;;;;;;;3.90;2.50;;;10.30;99.90;;;;;;5038812;28;20264;-79
2021/10/06 05:32:52;;;;;;;3.57;1.90;;;10.30;99.90;;;;;;5038557;28;20179;-80
2021/10/06 05:35:19;;;;;;;3.67;1.90;;;10.30;99.90;;;;;;5040030;28;20560;-80
2021/10/06 05:37:46;;;;;;;4.43;1.80;;;10.30;99.90;;;;;;5040685;28;20171;-79
2021/10/06 05:40:13;;;;;;;5.23;2.60;;;10.30;99.90;;;;;;5041094;28;20204;-79
2021/10/06 05:42:39;;;;;;;4.10;2.40;;;10.20;99.90;;;;;;5044448;28;20187;-79
2021/10/06 05:45:05;;;;;;;3.63;1.80;;;10.30;99.90;;;;;;5055568;28;20198;-80
2021/10/06 05:47:30;;;;;;;3.23;1.40;;;10.20;99.90;;;;;;5043803;28;20231;-80
2021/10/06 05:49:56;;;;;;;2.40;1.20;;;10.30;99.90;;;;;;5047200;28;20194;-82
2021/10/06 05:52:22;;;;;;;3.00;1.30;;;10.30;99.90;;;;;;5048617;28;20239;-80
2021/10/06 05:54:49;;;;;;;3.33;1.17;;;10.30;99.90;;;;;;5048211;28;20192;-78
2021/10/06 05:57:14;;;;;;;2.50;1.30;;;10.30;99.90;;;;;;5046877;28;20182;-78
2021/10/06 05:59:40;;;;;;;3.63;1.57;;;10.30;99.90;;;;;;5047646;28;20234;-80
2021/10/06 06:02:06;;;;;;;4.63;1.10;;;10.30;99.90;;;;;;5049261;28;20172;-78
2021/10/06 06:04:32;;;;;;;2.33;1.40;;;10.30;99.90;;;;;;5037296;28;20187;-78
2021/10/06 06:06:58;;;;;;;3.67;1.60;;;10.40;99.90;;;;;;5036065;28;20194;-78
2021/10/06 06:09:24;;;;;;;3.30;1.20;;;10.40;99.90;;;;;;5031815;28;20199;-79
2021/10/06 06:11:50;;;;;;;2.27;1.30;;;10.40;99.90;;;;;;5036084;28;20190;-78
2021/10/06 06:14:17;;;;;;;5.33;1.27;;;10.40;99.90;;;;;;5042379;28;20188;-79
2021/10/06 06:16:43;;;;;;;2.43;1.20;;;10.30;99.90;;;;;;5041239;28;20214;-79
2021/10/06 06:19:09;;;;;;;3.17;1.10;;;10.30;99.90;;;;;;5044229;28;20198;-79
2021/10/06 06:21:34;;;;;;;3.57;1.00;;;10.30;99.90;;;;;;5040735;28;20285;-79
2021/10/06 06:24:00;;;;;;;4.73;0.70;;;10.30;99.90;;;;;;5042250;28;20637;-78
2021/10/06 06:26:25;;;;;;;7.03;1.27;;;10.30;99.90;;;;;;5040378;28;20233;-79
2021/10/06 06:28:51;;;;;;;4.03;0.93;;;10.30;99.90;;;;;;5042667;28;20282;-79
2021/10/06 06:31:17;;;;;;;3.63;0.80;;;10.30;99.90;;;;;;5040327;28;20260;-79
2021/10/06 06:33:43;;;;;;;4.63;0.87;;;10.30;99.90;;;;;;5042379;28;20252;-80
2021/10/06 06:36:09;;;;;;;3.10;1.00;;;10.30;99.90;;;;;;5042782;28;20183;-79
2021/10/06 06:38:35;;;;;;;1.67;0.87;;;10.30;99.90;;;;;;5039617;28;20594;-80
2021/10/06 06:41:02;;;;;;;3.13;0.90;;;10.30;99.90;;;;;;5043283;28;20184;-79
2021/10/06 06:43:28;;;;;;;2.70;0.80;;;10.40;99.90;;;;;;5039769;28;20187;-78
2021/10/06 06:45:53;;;;;;;3.20;1.00;;;10.40;99.90;;;;;;5041880;28;20673;-79
2021/10/06 06:48:19;;;;;;;2.83;1.03;;;10.40;99.90;;;;;;5043527;28;20644;-79
2021/10/06 06:50:50;;;;;;;5.27;2.00;;;10.20;99.90;;;;;;5047272;28;20552;-79
2021/10/06 06:53:16;;;;;;;7.63;4.73;;;10.30;99.90;;;;;;5048000;28;20190;-80
2021/10/06 06:55:42;;;;;;;6.20;3.40;;;10.30;99.90;;;;;;5046930;28;20184;-81
2021/10/06 06:58:07;;;;;;;3.00;1.73;;;10.20;99.90;;;;;;5047602;28;20202;-79
2021/10/06 07:00:33;;;;;;;2.20;0.90;;;10.20;99.90;;;;;;5042817;28;20183;-79
2021/10/06 07:02:59;;;;;;;4.17;0.90;;;10.20;99.90;;;;;;5048331;28;20186;-79
2021/10/06 07:05:24;;;;;;;2.83;1.10;;;10.30;99.90;;;;;;5047180;28;20645;-79
2021/10/06 07:07:50;;;;;;;2.47;0.73;;;10.30;99.90;;;;;;5042851;28;20177;-78
2021/10/06 07:10:16;;;;;;;1.97;1.00;;;10.30;99.90;;;;;;5046159;28;20616;-78
2021/10/06 07:12:42;;;;;;;1.03;0.63;;;10.30;99.90;;;;;;5044167;28;20659;-78
2021/10/06 07:15:08;;;;;;;3.40;1.30;;;10.30;99.90;;;;;;5029152;28;20176;-79
2021/10/06 07:17:33;;;;;;;1.77;0.97;;;10.40;99.90;;;;;;5044885;28;20206;-80
2021/10/06 07:19:59;;;;;;;4.33;1.07;;;10.40;99.90;;;;;;5043878;28;20193;-79
2021/10/06 07:22:25;;;;;;;3.13;1.27;;;10.50;99.90;;;;;;5045849;28;20242;-79
2021/10/06 07:24:50;;;;;;;3.50;1.07;;;10.40;99.90;;;;;;5047661;28;20209;-79
2021/10/06 07:27:17;;;;;;;2.97;1.00;;;10.40;99.90;;;;;;5046709;28;20172;-80
2021/10/06 07:29:42;;;;;;;2.23;0.73;;;10.50;99.90;;;;;;5054292;22;20232;-83
2021/10/06 07:32:08;;;;;;;3.33;0.90;;;10.50;99.90;;;;;;5015732;28;20183;-83
2021/10/06 07:34:34;;;;;;;5.00;0.80;;;10.60;99.90;;;;;;5020073;28;20181;-83
2021/10/06 07:37:00;;;;;;;2.57;0.70;;;10.60;99.90;;;;;;5016400;28;20644;-82
2021/10/06 07:39:25;;;;;;;2.73;0.97;;;10.60;99.90;;;;;;4999120;28;20203;-83
2021/10/06 07:41:51;;;;;;;3.10;0.80;;;10.70;99.90;;;;;;4997687;28;20174;-83
2021/10/06 07:44:17;;;;;;;4.00;0.80;;;10.80;99.90;;;;;;5018610;28;20182;-83
2021/10/06 07:46:43;;;;;;;3.33;0.73;;;10.80;99.90;;;;;;5016107;28;20226;-84
2021/10/06 07:49:10;;;;;;;4.40;1.07;;;10.80;99.90;;;;;;5015043;28;20212;-82
2021/10/06 07:51:37;;;;;;;2.60;1.10;;;10.80;99.90;;;;;;5002300;28;20231;-83
2021/10/06 07:54:03;;;;;;;7.37;1.27;;;10.80;99.90;;;;;;5005545;28;20178;-83
2021/10/06 07:56:29;;;;;;;4.33;1.40;;;10.80;99.90;;;;;;5004867;28;20192;-83
2021/10/06 07:58:55;;;;;;;5.17;0.73;;;10.80;99.90;;;;;;5008950;28;20612;-83
2021/10/06 08:01:21;;;;;;;6.30;1.00;;;10.80;99.90;;;;;;5006917;28;20191;-83
2021/10/06 08:03:46;;;;;;;8.13;1.03;;;10.80;99.90;;;;;;5005805;28;20187;-83
2021/10/06 08:06:12;;;;;;;4.43;0.90;;;10.90;99.90;;;;;;5017174;28;20207;-83
2021/10/06 08:08:38;;;;;;;4.47;0.90;;;10.90;99.90;;;;;;5003521;28;20620;-82
2021/10/06 08:11:04;;;;;;;2.67;1.07;;;11.00;99.90;;;;;;5011730;28;20196;-83
2021/10/06 08:13:30;;;;;;;2.13;0.90;;;11.10;99.90;;;;;;5004332;28;20203;-84
2021/10/06 08:15:56;;;;;;;3.27;1.00;;;11.10;99.90;;;;;;5010586;28;20214;-83
2021/10/06 08:18:22;;;;;;;3.00;1.00;;;11.20;99.90;;;;;;5002235;28;20218;-83
2021/10/06 08:20:49;;;;;;;2.57;0.80;;;11.30;99.90;;;;;;5020228;28;20204;-83
2021/10/06 08:23:17;;;;;;;4.23;1.03;;;11.40;99.90;;;;;;5021814;28;20635;-83
2021/10/06 08:25:43;;;;;;;2.97;0.90;;;11.40;99.90;;;;;;5021084;28;20591;-84
2021/10/06 08:28:09;;;;;;;5.60;0.93;;;11.50;99.90;;;;;;5020968;28;20179;-83
2021/10/06 08:30:34;;;;;;;4.83;0.97;;;11.60;99.90;;;;;;5017996;28;20285;-83
2021/10/06 08:33:00;;;;;;;6.70;0.90;;;11.50;99.90;;;;;;5006350;28;20178;-84
2021/10/06 08:35:26;;;;;;;4.30;1.27;;;11.60;99.90;;;;;;5007447;28;20176;-83
2021/10/06 08:37:51;;;;;;;2.87;0.83;;;11.60;99.90;;;;;;5027502;28;20665;-83
2021/10/06 08:40:17;;;;;;;2.03;0.90;;;11.60;99.90;;;;;;5017867;28;20204;-83
2021/10/06 08:42:43;;;;;;;3.17;0.77;;;11.60;99.90;;;;;;5016887;28;20184;-83
2021/10/06 08:45:10;;;;;;;1.87;0.77;;;11.70;99.90;;;;;;5020341;28;20217;-83
2021/10/06 08:47:37;;;;;;;3.57;0.70;;;11.80;99.90;;;;;;5020615;28;20189;-83
2021/10/06 08:50:05;;;;;;;5.07;0.83;;;11.80;99.90;;;;;;5021469;28;20195;-83
2021/10/06 08:52:31;;;;;;;3.23;0.80;;;11.70;99.90;;;;;;5002872;28;20650;-83
2021/10/06 08:54:56;;;;;;;3.47;0.70;;;11.70;99.90;;;;;;5020237;28;20187;-84
2021/10/06 08:57:22;;;;;;;2.23;0.70;;;11.70;99.90;;;;;;5019012;28;20584;-82
2021/10/06 08:59:48;;;;;;;3.53;1.20;;;11.70;99.90;;;;;;5023090;28;20209;-84
2021/10/06 09:02:15;;;;;;;3.73;1.27;;;11.80;99.90;;;;;;5001545;28;20576;-83
2021/10/06 09:04:41;;;;;;;5.17;1.00;;;11.80;99.90;;;;;;5018916;28;20603;-83
2021/10/06 09:07:08;;;;;;;4.63;1.10;;;11.80;99.90;;;;;;5020211;28;20168;-83
2021/10/06 09:09:37;;;;;;;3.97;0.80;;;11.80;99.90;;;;;;5000837;28;20197;-82
2021/10/06 09:12:16;;;;;;;3.80;1.07;;;11.90;99.90;;;;;;5015910;28;20172;-82
2021/10/06 09:14:44;;;;;;;3.67;0.70;;;12.00;99.90;;;;;;5015551;28;20229;-82
2021/10/06 09:17:11;;;;;;;2.80;1.00;;;12.10;99.90;;;;;;5017617;28;20208;-83
2021/10/06 09:19:41;;;;;;;4.40;1.10;;;12.10;99.90;;;;;;5017924;28;20274;-83
2021/10/06 09:22:30;;;;;;;5.07;1.00;;;12.10;99.90;;;;;;5000711;28;20182;-82
2021/10/06 09:25:05;;;;;;;4.13;1.73;;;12.30;99.90;;;;;;5017471;28;20300;-82
2021/10/06 09:27:36;;;;;;;3.23;1.00;;;12.30;99.90;;;;;;5024517;28;20509;-83
2021/10/06 09:30:11;;;;;;;4.70;1.00;;;12.30;99.90;;;;;;5007683;28;20269;-83
2021/10/06 09:32:42;;;;;;;4.70;1.03;;;12.40;99.90;;;;;;5002319;28;20177;-83
2021/10/06 09:35:14;;;;;;;3.07;0.90;;;12.40;99.90;;;;;;5000729;28;20182;-83
2021/10/06 09:37:47;;;;;;;3.13;0.77;;;12.40;99.90;;;;;;5000173;28;20194;-83
2021/10/06 09:40:15;;;;;;;3.03;1.10;;;12.40;99.90;;;;;;5013680;28;20204;-83
2021/10/06 09:42:49;;;;;;;4.47;0.80;;;12.30;99.90;;;;;;5015021;28;20213;-82
2021/10/06 09:45:28;;;;;;;2.97;0.60;;;12.40;99.90;;;;;;4994462;28;20210;-82
2021/10/06 09:48:06;;;;;;;4.33;0.97;;;12.40;99.90;;;;;;4999915;28;20261;-83
2021/10/06 09:50:34;;;;;;;2.03;0.73;;;12.50;99.90;;;;;;5015863;28;20199;-83
2021/10/06 09:53:10;;;;;;;2.77;0.90;;;12.60;99.90;;;;;;4999347;28;20548;-82
2021/10/06 09:55:37;;;;;;;3.33;0.60;;;12.60;99.90;;;;;;5019229;28;20186;-84
2021/10/06 09:58:04;;;;;;;3.37;0.73;;;12.60;99.90;;;;;;4999280;28;20554;-82
2021/10/06 10:00:29;;;;;;;3.07;0.87;;;12.70;99.90;;;;;;5019376;28;20200;-84
2021/10/06 10:02:56;;;;;;;3.00;0.70;;;12.70;99.90;;;;;;4999689;28;20246;-84
2021/10/06 10:05:21;;;;;;;5.53;1.00;;;12.80;99.90;;;;;;5014820;28;20205;-84
2021/10/06 10:07:49;;;;;;;3.87;0.80;;;12.80;99.90;;;;;;5007587;28;20937;-84
2021/10/06 10:10:16;;;;;;;2.47;0.80;;;13.00;99.90;;;;;;4990091;28;20206;-83
2021/10/06 10:12:42;;;;;;;2.10;0.77;;;13.10;99.90;;;;;;4990350;28;20201;-84
2021/10/06 10:15:09;;;;;;;2.80;0.77;;;13.20;99.90;;;;;;4999786;28;20186;-84
2021/10/06 10:17:35;;;;;;;3.13;0.63;;;13.40;99.90;;;;;;4997962;28;20274;-84
2021/10/06 10:20:08;;;;;;;4.60;1.00;;;13.50;99.90;;;;;;5016641;28;20231;-82
2021/10/06 10:22:40;;;;;;;3.47;0.80;;;13.50;99.90;;;;;;5012183;28;20187;-84
2021/10/06 10:25:22;;;;;;;2.80;0.87;;;13.40;99.90;;;;;;4992479;28;20242;-84
2021/10/06 10:28:11;;;;;;;4.07;0.60;;;13.40;99.90;;;;;;4998559;28;20190;-85
2021/10/06 10:30:40;;;;;;;2.70;0.80;;;13.50;99.90;;;;;;5014031;28;20237;-85
2021/10/06 10:33:07;;;;;;;1.43;0.60;;;13.60;99.90;;;;;;5000492;28;20197;-85
2021/10/06 10:35:42;;;;;;;2.43;0.50;;;13.70;99.90;;;;;;5014413;28;20183;-85
2021/10/06 10:38:16;;;;;;;3.30;0.90;;;13.70;99.90;;;;;;5000693;28;20188;-85
2021/10/06 10:40:47;;;;;;;2.63;0.60;;;13.90;99.90;;;;;;5012120;28;20213;-85
2021/10/06 10:43:24;;;;;;;2.10;0.70;;;14.10;99.90;;;;;;5000265;28;20306;-85
2021/10/06 10:46:09;;;;;;;2.30;0.60;;;14.20;99.90;;;;;;5010029;28;20217;-85
2021/10/06 10:48:58;;;;;;;3.33;0.67;;;14.40;99.90;;;;;;5012598;28;20266;-83
2021/10/06 10:51:43;;;;;;;1.60;0.60;;;14.50;99.90;;;;;;5009419;28;20197;-85
2021/10/06 10:54:10;;;;;;;2.37;0.50;;;14.50;99.90;;;;;;4994319;28;20178;-86
2021/10/06 10:56:48;;;;;;;1.93;0.50;;;14.50;99.90;;;;;;4999775;28;20187;-85
2021/10/06 10:59:25;;;;;;;2.43;0.50;;;14.50;99.90;;;;;;5018581;28;20662;-80
2021/10/06 11:01:57;;;;;;;1.90;0.40;;;14.60;99.90;;;;;;5013903;28;20310;-85
2021/10/06 11:04:29;;;;;;;1.43;0.57;;;14.70;99.90;;;;;;5012085;28;20190;-85
2021/10/06 11:07:13;;;;;;;3.23;0.70;;;14.80;99.90;;;;;;4995418;28;20194;-85
2021/10/06 11:09:50;;;;;;;1.83;0.60;;;14.80;99.90;;;;;;5001002;28;20226;-84
2021/10/06 11:12:19;;;;;;;3.63;1.00;;;14.90;99.90;;;;;;5015475;28;20186;-86
2021/10/06 11:15:04;;;;;;;2.50;0.60;;;14.80;99.90;;;;;;5015406;28;20203;-85
2021/10/06 11:17:29;;;;;;;1.93;0.50;;;14.60;99.90;;;;;;5016724;28;20563;-85
2021/10/06 11:19:55;;;;;;;4.03;0.50;;;14.50;99.90;;;;;;5015984;28;20211;-85
2021/10/06 11:22:24;;;;;;;4.67;0.53;;;14.50;99.90;;;;;;5014788;28;20194;-85
2021/10/06 11:24:58;;;;;;;2.10;0.60;;;14.50;99.90;;;;;;5008526;28;20211;-86
2021/10/06 11:27:26;;;;;;;2.83;0.60;;;14.50;99.90;;;;;;5020644;28;20186;-86
2021/10/06 11:29:53;;;;;;;3.07;0.60;;;14.50;99.90;;;;;;5019489;28;20215;-85
2021/10/06 11:32:20;;;;;;;2.50;0.80;;;14.60;99.90;;;;;;4999657;28;20171;-85
2021/10/06 11:34:53;;;;;;;1.77;0.50;;;14.50;99.90;;;;;;5013056;28;20191;-86
2021/10/06 11:37:29;;;;;;;1.40;0.50;;;14.60;99.90;;;;;;5020811;28;20186;-85
2021/10/06 11:39:55;;;;;;;2.37;0.40;;;14.70;99.90;;;;;;5004204;28;20206;-85
2021/10/06 11:42:30;;;;;;;2.93;0.80;;;14.80;99.90;;;;;;5017538;28;20218;-85
2021/10/06 11:44:56;;;;;;;3.83;0.80;;;14.80;99.90;;;;;;4998710;28;20216;-84
2021/10/06 11:47:22;;;;;;;2.27;0.50;;;14.80;99.90;;;;;;5018144;28;21012;-84
2021/10/06 11:49:51;;;;;;;2.27;0.40;;;14.70;99.90;;;;;;5019066;28;20210;-85
2021/10/06 11:52:20;;;;;;;3.30;0.80;;;14.70;99.90;;;;;;5002721;28;20235;-84
2021/10/06 11:54:47;;;;;;;2.20;0.43;;;14.80;99.90;;;;;;5000338;28;20226;-83
2021/10/06 11:57:14;;;;;;;2.73;0.60;;;15.00;99.90;;;;;;5015166;28;20175;-84
2021/10/06 11:59:45;;;;;;;1.67;0.50;;;14.90;99.90;;;;;;5021277;28;20228;-84
2021/10/06 12:02:13;;;;;;;2.47;0.80;;;15.00;99.90;;;;;;5020170;28;20174;-84
2021/10/06 12:04:40;;;;;;;1.47;0.50;;;15.10;99.90;;;;;;5002332;28;20175;-84
2021/10/06 12:07:07;;;;;;;3.60;1.60;;;15.00;99.90;;;;;;5017965;28;20176;-83
2021/10/06 12:09:37;;;;;;;4.57;1.63;;;15.00;99.90;;;;;;5023720;28;20199;-81
2021/10/06 12:12:15;;;;;;;2.80;0.70;;;14.90;99.90;;;;;;5018655;28;20557;-82
2021/10/06 12:14:47;;;;;;;3.33;0.43;;;14.80;99.90;;;;;;5018806;28;20175;-84
2021/10/06 12:17:21;;;;;;;1.70;0.50;;;14.90;99.90;;;;;;4999987;28;20183;-83
2021/10/06 12:20:04;;;;;;;2.73;0.60;;;14.90;99.90;;;;;;5011212;28;20574;-84
2021/10/06 12:22:33;;;;;;;4.87;0.67;;;14.90;99.90;;;;;;5019653;28;20171;-84
2021/10/06 12:24:59;;;;;;;5.17;0.97;;;14.90;99.90;;;;;;5013913;28;20190;-84
2021/10/06 12:27:33;;;;;;;1.47;0.43;;;14.90;99.90;;;;;;5016437;28;20235;-84
2021/10/06 12:30:06;;;;;;;1.87;0.60;;;15.00;99.90;;;;;;5029248;28;20271;-84
2021/10/06 12:32:33;;;;;;;1.33;0.50;;;15.10;99.90;;;;;;5006456;28;20191;-85
2021/10/06 12:35:08;;;;;;;1.40;0.30;;;15.10;99.90;;;;;;5007420;28;20182;-84
2021/10/06 12:37:34;;;;;;;1.37;0.30;;;15.00;99.90;;;;;;5021962;28;20213;-84
2021/10/06 12:40:00;;;;;;;1.80;0.30;;;14.80;99.90;;;;;;5012887;28;20227;-84
2021/10/06 12:42:26;;;;;;;0.90;0.30;;;14.70;99.90;;;;;;4994829;28;20211;-84
2021/10/06 12:44:52;;;;;;;1.07;0.30;;;14.60;99.90;;;;;;5033115;28;20210;-86
2021/10/06 12:47:19;;;;;;;3.30;0.40;;;14.60;99.90;;;;;;5025224;28;20232;-84
2021/10/06 12:49:54;;;;;;;1.13;0.40;;;14.60;99.90;;;;;;5002973;28;20207;-84